CheckWX is a tool to help pilots better visualize weather data.  It is not intended as a substitute for an official pre-flight weather briefing.

10:09:35 UTC

UACK TAF
Kokshetau
Kokshetau, Kazakhstan
TAF UACK 260800Z 2609/2618 29007MPS 9999 BKN030 BKN100 TEMPO 2609/2618 33009G14MPS 5000 -SHRA BR BKN015CB

Jun-26@
09:00 UTC

Jun-26 @ 09:00 UTC

Jun-26@
18:00 UTC

Jun-26 @ 18:00 UTC

TAF UACK 260800Z 2609/2618 29007MPS 9999 BKN030 BKN100
Wind
  • 290° at 14 KTS
Cloud Levels
  • Broken at 3,000' AGL
  • Broken at 10,000' AGL

Jun-26@
09:00 UTC

Jun-26 @ 09:00 UTC

Jun-26@
18:00 UTC

Jun-26 @ 18:00 UTC

TEMPO 2609/2618 33009G14MPS 5000 -SHRA BR BKN015CB

Temporary

Temporary Changes expected for less than half the time period

Wind
  • 330° at 17 KTS
  • {Gusting to 27 KTS
Conditions
Light Rain, Mist
Cloud Levels
  • Broken at 1,500' AGL